sensor_id;sensor_type;location;lat;lon;timestamp;P1;durP1;ratioP1;P2;durP2;ratioP2
18653;SDS011;9456;47.824;16.228;2023-12-04T00:00:37;8.70;;;7.03;;
18653;SDS011;9456;47.824;16.228;2023-12-04T00:03:05;10.37;;;7.77;;
18653;SDS011;9456;47.824;16.228;2023-12-04T00:05:33;10.57;;;7.33;;
18653;SDS011;9456;47.824;16.228;2023-12-04T00:08:01;11.53;;;8.27;;
18653;SDS011;9456;47.824;16.228;2023-12-04T00:10:29;10.57;;;7.67;;
18653;SDS011;9456;47.824;16.228;2023-12-04T00:12:57;12.17;;;8.10;;
18653;SDS011;9456;47.824;16.228;2023-12-04T00:15:25;8.17;;;6.97;;
18653;SDS011;9456;47.824;16.228;2023-12-04T00:17:53;11.63;;;8.17;;
18653;SDS011;9456;47.824;16.228;2023-12-04T00:20:21;11.33;;;7.33;;
18653;SDS011;9456;47.824;16.228;2023-12-04T00:22:49;11.33;;;8.27;;
18653;SDS011;9456;47.824;16.228;2023-12-04T00:25:17;11.00;;;7.30;;
18653;SDS011;9456;47.824;16.228;2023-12-04T00:27:45;12.43;;;8.03;;
18653;SDS011;9456;47.824;16.228;2023-12-04T00:30:13;12.73;;;8.17;;
18653;SDS011;9456;47.824;16.228;2023-12-04T00:32:41;11.27;;;7.40;;
18653;SDS011;9456;47.824;16.228;2023-12-04T00:35:09;9.40;;;7.10;;
18653;SDS011;9456;47.824;16.228;2023-12-04T00:37:38;12.40;;;8.50;;
18653;SDS011;9456;47.824;16.228;2023-12-04T00:40:07;8.53;;;6.73;;
18653;SDS011;9456;47.824;16.228;2023-12-04T00:42:35;9.60;;;7.43;;
18653;SDS011;9456;47.824;16.228;2023-12-04T00:45:04;9.70;;;6.93;;
18653;SDS011;9456;47.824;16.228;2023-12-04T00:47:32;8.83;;;6.87;;
18653;SDS011;9456;47.824;16.228;2023-12-04T00:50:00;9.60;;;6.80;;
18653;SDS011;9456;47.824;16.228;2023-12-04T00:52:28;9.73;;;6.63;;
18653;SDS011;9456;47.824;16.228;2023-12-04T00:54:56;8.67;;;6.97;;
18653;SDS011;9456;47.824;16.228;2023-12-04T00:57:24;7.87;;;6.03;;
18653;SDS011;9456;47.824;16.228;2023-12-04T00:59:52;7.77;;;5.83;;
18653;SDS011;9456;47.824;16.228;2023-12-04T01:02:20;8.13;;;5.90;;
18653;SDS011;9456;47.824;16.228;2023-12-04T01:04:48;6.23;;;5.40;;
18653;SDS011;9456;47.824;16.228;2023-12-04T01:07:16;6.23;;;5.43;;
18653;SDS011;9456;47.824;16.228;2023-12-04T01:09:44;5.50;;;5.00;;
18653;SDS011;9456;47.824;16.228;2023-12-04T01:12:12;6.87;;;4.73;;
18653;SDS011;9456;47.824;16.228;2023-12-04T01:14:40;5.80;;;4.73;;
18653;SDS011;9456;47.824;16.228;2023-12-04T01:17:08;5.90;;;4.83;;
18653;SDS011;9456;47.824;16.228;2023-12-04T01:19:36;7.60;;;5.30;;
18653;SDS011;9456;47.824;16.228;2023-12-04T01:22:04;6.60;;;5.20;;
18653;SDS011;9456;47.824;16.228;2023-12-04T01:24:32;5.53;;;5.00;;
18653;SDS011;9456;47.824;16.228;2023-12-04T01:27:00;6.17;;;5.37;;
18653;SDS011;9456;47.824;16.228;2023-12-04T01:29:28;8.03;;;4.97;;
18653;SDS011;9456;47.824;16.228;2023-12-04T01:31:56;6.53;;;4.93;;
18653;SDS011;9456;47.824;16.228;2023-12-04T01:37:04;6.53;;;5.13;;
18653;SDS011;9456;47.824;16.228;2023-12-04T01:39:32;5.83;;;4.63;;
18653;SDS011;9456;47.824;16.228;2023-12-04T01:42:00;5.87;;;4.73;;
18653;SDS011;9456;47.824;16.228;2023-12-04T01:44:28;5.63;;;4.60;;
18653;SDS011;9456;47.824;16.228;2023-12-04T01:46:56;4.70;;;4.10;;
18653;SDS011;9456;47.824;16.228;2023-12-04T01:49:24;6.63;;;4.57;;
18653;SDS011;9456;47.824;16.228;2023-12-04T01:51:52;7.90;;;4.80;;
18653;SDS011;9456;47.824;16.228;2023-12-04T01:54:20;5.90;;;4.67;;
18653;SDS011;9456;47.824;16.228;2023-12-04T01:56:48;4.73;;;4.23;;
18653;SDS011;9456;47.824;16.228;2023-12-04T01:59:16;7.27;;;5.63;;
18653;SDS011;9456;47.824;16.228;2023-12-04T02:01:45;7.47;;;4.93;;
18653;SDS011;9456;47.824;16.228;2023-12-04T02:04:13;5.57;;;3.97;;
18653;SDS011;9456;47.824;16.228;2023-12-04T02:06:41;5.05;;;4.15;;
18653;SDS011;9456;47.824;16.228;2023-12-04T02:09:09;6.43;;;4.60;;
18653;SDS011;9456;47.824;16.228;2023-12-04T02:11:37;5.23;;;4.30;;
18653;SDS011;9456;47.824;16.228;2023-12-04T02:14:05;4.67;;;4.00;;
18653;SDS011;9456;47.824;16.228;2023-12-04T02:16:33;6.50;;;4.60;;
18653;SDS011;9456;47.824;16.228;2023-12-04T02:19:01;6.83;;;4.57;;
18653;SDS011;9456;47.824;16.228;2023-12-04T02:21:29;5.93;;;4.03;;
18653;SDS011;9456;47.824;16.228;2023-12-04T02:23:57;4.73;;;4.20;;
18653;SDS011;9456;47.824;16.228;2023-12-04T02:26:27;5.43;;;4.60;;
18653;SDS011;9456;47.824;16.228;2023-12-04T02:28:55;4.45;;;3.70;;
18653;SDS011;9456;47.824;16.228;2023-12-04T02:34:00;4.90;;;3.77;;
18653;SDS011;9456;47.824;16.228;2023-12-04T02:36:28;5.23;;;3.80;;
18653;SDS011;9456;47.824;16.228;2023-12-04T02:38:56;5.20;;;4.10;;
18653;SDS011;9456;47.824;16.228;2023-12-04T02:41:24;5.50;;;4.30;;
18653;SDS011;9456;47.824;16.228;2023-12-04T02:43:52;4.73;;;3.47;;
18653;SDS011;9456;47.824;16.228;2023-12-04T02:46:20;4.40;;;3.80;;
18653;SDS011;9456;47.824;16.228;2023-12-04T02:48:48;4.97;;;4.07;;
18653;SDS011;9456;47.824;16.228;2023-12-04T02:51:16;5.40;;;4.57;;
18653;SDS011;9456;47.824;16.228;2023-12-04T02:53:44;3.77;;;3.47;;
18653;SDS011;9456;47.824;16.228;2023-12-04T02:56:12;6.03;;;4.00;;
18653;SDS011;9456;47.824;16.228;2023-12-04T02:58:40;6.50;;;4.30;;
18653;SDS011;9456;47.824;16.228;2023-12-04T03:01:08;4.53;;;4.13;;
18653;SDS011;9456;47.824;16.228;2023-12-04T03:03:36;6.23;;;4.90;;
18653;SDS011;9456;47.824;16.228;2023-12-04T03:06:05;5.43;;;4.07;;
18653;SDS011;9456;47.824;16.228;2023-12-04T03:08:33;4.63;;;4.10;;
18653;SDS011;9456;47.824;16.228;2023-12-04T03:11:02;4.07;;;3.67;;
18653;SDS011;9456;47.824;16.228;2023-12-04T03:13:30;4.93;;;3.87;;
18653;SDS011;9456;47.824;16.228;2023-12-04T03:15:58;6.10;;;4.27;;
18653;SDS011;9456;47.824;16.228;2023-12-04T03:18:26;3.83;;;3.43;;
18653;SDS011;9456;47.824;16.228;2023-12-04T03:20:54;3.70;;;3.40;;
18653;SDS011;9456;47.824;16.228;2023-12-04T03:23:22;4.10;;;3.70;;
18653;SDS011;9456;47.824;16.228;2023-12-04T03:25:50;3.97;;;3.57;;
18653;SDS011;9456;47.824;16.228;2023-12-04T03:30:55;5.73;;;3.60;;
18653;SDS011;9456;47.824;16.228;2023-12-04T03:33:23;4.70;;;3.97;;
18653;SDS011;9456;47.824;16.228;2023-12-04T03:35:51;5.03;;;3.50;;
18653;SDS011;9456;47.824;16.228;2023-12-04T03:38:19;5.03;;;3.50;;
18653;SDS011;9456;47.824;16.228;2023-12-04T03:40:47;5.63;;;4.00;;
18653;SDS011;9456;47.824;16.228;2023-12-04T03:43:15;4.53;;;3.40;;
18653;SDS011;9456;47.824;16.228;2023-12-04T03:45:43;3.87;;;3.43;;
18653;SDS011;9456;47.824;16.228;2023-12-04T03:48:11;4.13;;;3.70;;
18653;SDS011;9456;47.824;16.228;2023-12-04T03:50:39;4.63;;;4.00;;
18653;SDS011;9456;47.824;16.228;2023-12-04T03:53:07;4.53;;;3.67;;
18653;SDS011;9456;47.824;16.228;2023-12-04T03:55:36;4.20;;;3.80;;
18653;SDS011;9456;47.824;16.228;2023-12-04T03:58:04;6.17;;;3.77;;
18653;SDS011;9456;47.824;16.228;2023-12-04T04:00:32;5.40;;;3.70;;
18653;SDS011;9456;47.824;16.228;2023-12-04T04:03:00;3.90;;;3.47;;
18653;SDS011;9456;47.824;16.228;2023-12-04T04:05:28;31.70;;;16.63;;
18653;SDS011;9456;47.824;16.228;2023-12-04T04:07:56;22.30;;;12.93;;
18653;SDS011;9456;47.824;16.228;2023-12-04T04:10:24;13.83;;;8.87;;
18653;SDS011;9456;47.824;16.228;2023-12-04T04:12:52;14.73;;;6.43;;
18653;SDS011;9456;47.824;16.228;2023-12-04T04:15:20;6.00;;;4.20;;
18653;SDS011;9456;47.824;16.228;2023-12-04T04:17:48;4.33;;;3.43;;
18653;SDS011;9456;47.824;16.228;2023-12-04T04:20:16;3.63;;;3.33;;
18653;SDS011;9456;47.824;16.228;2023-12-04T04:22:47;4.10;;;3.70;;
18653;SDS011;9456;47.824;16.228;2023-12-04T04:25:14;11.90;;;7.60;;
18653;SDS011;9456;47.824;16.228;2023-12-04T04:27:42;10.07;;;6.77;;
18653;SDS011;9456;47.824;16.228;2023-12-04T04:30:12;8.13;;;6.80;;
18653;SDS011;9456;47.824;16.228;2023-12-04T04:32:40;8.93;;;5.47;;
18653;SDS011;9456;47.824;16.228;2023-12-04T04:35:08;6.30;;;5.15;;
18653;SDS011;9456;47.824;16.228;2023-12-04T04:37:42;6.87;;;4.37;;
18653;SDS011;9456;47.824;16.228;2023-12-04T04:40:11;4.80;;;4.30;;
18653;SDS011;9456;47.824;16.228;2023-12-04T04:42:39;5.60;;;5.10;;
18653;SDS011;9456;47.824;16.228;2023-12-04T04:45:07;6.03;;;4.33;;
18653;SDS011;9456;47.824;16.228;2023-12-04T04:47:35;6.07;;;4.90;;
18653;SDS011;9456;47.824;16.228;2023-12-04T04:50:04;8.60;;;7.57;;
18653;SDS011;9456;47.824;16.228;2023-12-04T04:52:32;6.47;;;5.23;;
18653;SDS011;9456;47.824;16.228;2023-12-04T04:55:01;5.80;;;5.20;;
18653;SDS011;9456;47.824;16.228;2023-12-04T04:57:29;14.60;;;12.70;;
18653;SDS011;9456;47.824;16.228;2023-12-04T04:59:57;14.87;;;10.50;;
18653;SDS011;9456;47.824;16.228;2023-12-04T05:02:25;16.50;;;12.25;;
18653;SDS011;9456;47.824;16.228;2023-12-04T05:04:53;13.50;;;10.47;;
18653;SDS011;9456;47.824;16.228;2023-12-04T05:07:21;11.10;;;7.43;;
18653;SDS011;9456;47.824;16.228;2023-12-04T05:09:49;9.33;;;6.40;;
18653;SDS011;9456;47.824;16.228;2023-12-04T05:12:17;6.00;;;4.40;;
18653;SDS011;9456;47.824;16.228;2023-12-04T05:14:45;4.20;;;3.80;;
18653;SDS011;9456;47.824;16.228;2023-12-04T05:17:13;6.00;;;4.95;;
18653;SDS011;9456;47.824;16.228;2023-12-04T05:19:41;4.60;;;4.00;;
18653;SDS011;9456;47.824;16.228;2023-12-04T05:22:13;5.80;;;3.93;;
18653;SDS011;9456;47.824;16.228;2023-12-04T05:24:45;5.87;;;4.10;;
18653;SDS011;9456;47.824;16.228;2023-12-04T05:27:13;4.70;;;3.90;;
18653;SDS011;9456;47.824;16.228;2023-12-04T05:29:41;5.53;;;4.47;;
18653;SDS011;9456;47.824;16.228;2023-12-04T05:32:12;4.97;;;4.07;;
18653;SDS011;9456;47.824;16.228;2023-12-04T05:34:41;11.80;;;7.30;;
18653;SDS011;9456;47.824;16.228;2023-12-04T05:37:09;8.90;;;7.55;;
18653;SDS011;9456;47.824;16.228;2023-12-04T05:39:37;5.60;;;4.40;;
18653;SDS011;9456;47.824;16.228;2023-12-04T05:42:05;12.40;;;7.10;;
18653;SDS011;9456;47.824;16.228;2023-12-04T05:44:34;21.90;;;12.47;;
18653;SDS011;9456;47.824;16.228;2023-12-04T05:47:02;10.00;;;6.73;;
18653;SDS011;9456;47.824;16.228;2023-12-04T05:49:30;5.33;;;3.80;;
18653;SDS011;9456;47.824;16.228;2023-12-04T05:52:01;4.13;;;3.73;;
18653;SDS011;9456;47.824;16.228;2023-12-04T05:54:30;4.65;;;3.80;;
18653;SDS011;9456;47.824;16.228;2023-12-04T05:56:58;3.80;;;3.10;;
18653;SDS011;9456;47.824;16.228;2023-12-04T05:59:26;3.60;;;2.80;;
18653;SDS011;9456;47.824;16.228;2023-12-04T06:01:54;37.77;;;20.57;;
18653;SDS011;9456;47.824;16.228;2023-12-04T06:04:22;18.55;;;12.40;;
18653;SDS011;9456;47.824;16.228;2023-12-04T06:06:50;13.07;;;9.80;;
18653;SDS011;9456;47.824;16.228;2023-12-04T06:09:18;38.43;;;23.23;;
18653;SDS011;9456;47.824;16.228;2023-12-04T06:11:46;9.73;;;8.77;;
18653;SDS011;9456;47.824;16.228;2023-12-04T06:14:14;18.13;;;11.73;;
18653;SDS011;9456;47.824;16.228;2023-12-04T06:16:42;21.90;;;14.73;;
18653;SDS011;9456;47.824;16.228;2023-12-04T06:21:47;6.53;;;4.97;;
18653;SDS011;9456;47.824;16.228;2023-12-04T06:24:16;4.00;;;3.55;;
18653;SDS011;9456;47.824;16.228;2023-12-04T06:26:44;5.90;;;3.57;;
18653;SDS011;9456;47.824;16.228;2023-12-04T06:29:13;5.95;;;4.00;;
18653;SDS011;9456;47.824;16.228;2023-12-04T06:31:41;12.70;;;8.63;;
18653;SDS011;9456;47.824;16.228;2023-12-04T06:34:10;3.53;;;3.23;;
18653;SDS011;9456;47.824;16.228;2023-12-04T06:36:38;4.90;;;3.97;;
18653;SDS011;9456;47.824;16.228;2023-12-04T06:39:06;6.15;;;4.60;;
18653;SDS011;9456;47.824;16.228;2023-12-04T06:41:35;5.75;;;4.40;;
18653;SDS011;9456;47.824;16.228;2023-12-04T06:44:03;8.05;;;7.25;;
18653;SDS011;9456;47.824;16.228;2023-12-04T06:46:34;12.15;;;8.20;;
18653;SDS011;9456;47.824;16.228;2023-12-04T06:49:01;11.53;;;7.20;;
18653;SDS011;9456;47.824;16.228;2023-12-04T06:51:29;6.17;;;5.57;;
18653;SDS011;9456;47.824;16.228;2023-12-04T06:53:57;7.10;;;3.93;;
18653;SDS011;9456;47.824;16.228;2023-12-04T06:56:25;3.70;;;3.20;;
18653;SDS011;9456;47.824;16.228;2023-12-04T06:58:53;4.70;;;3.07;;
18653;SDS011;9456;47.824;16.228;2023-12-04T07:01:21;5.13;;;3.93;;
18653;SDS011;9456;47.824;16.228;2023-12-04T07:03:49;10.87;;;6.30;;
18653;SDS011;9456;47.824;16.228;2023-12-04T07:06:17;10.97;;;6.50;;
18653;SDS011;9456;47.824;16.228;2023-12-04T07:08:45;10.73;;;7.87;;
18653;SDS011;9456;47.824;16.228;2023-12-04T07:11:13;40.27;;;9.57;;
18653;SDS011;9456;47.824;16.228;2023-12-04T07:13:42;33.15;;;9.75;;
18653;SDS011;9456;47.824;16.228;2023-12-04T07:16:12;65.53;;;10.73;;
18653;SDS011;9456;47.824;16.228;2023-12-04T07:18:40;32.57;;;9.53;;
18653;SDS011;9456;47.824;16.228;2023-12-04T07:21:08;49.33;;;10.73;;
18653;SDS011;9456;47.824;16.228;2023-12-04T07:23:36;38.07;;;10.50;;
18653;SDS011;9456;47.824;16.228;2023-12-04T07:26:04;19.17;;;9.77;;
18653;SDS011;9456;47.824;16.228;2023-12-04T07:28:34;34.43;;;10.00;;
18653;SDS011;9456;47.824;16.228;2023-12-04T07:31:02;48.13;;;10.83;;
18653;SDS011;9456;47.824;16.228;2023-12-04T07:33:30;44.27;;;11.63;;
18653;SDS011;9456;47.824;16.228;2023-12-04T07:35:58;27.17;;;9.93;;
18653;SDS011;9456;47.824;16.228;2023-12-04T07:38:26;45.03;;;12.37;;
18653;SDS011;9456;47.824;16.228;2023-12-04T07:40:54;33.30;;;10.50;;
18653;SDS011;9456;47.824;16.228;2023-12-04T07:43:22;25.33;;;10.17;;
18653;SDS011;9456;47.824;16.228;2023-12-04T07:45:50;63.00;;;12.03;;
18653;SDS011;9456;47.824;16.228;2023-12-04T07:48:18;86.07;;;11.60;;
18653;SDS011;9456;47.824;16.228;2023-12-04T07:50:46;27.87;;;10.90;;
18653;SDS011;9456;47.824;16.228;2023-12-04T07:53:14;40.13;;;10.70;;
18653;SDS011;9456;47.824;16.228;2023-12-04T07:55:42;41.03;;;12.27;;
18653;SDS011;9456;47.824;16.228;2023-12-04T07:58:11;25.67;;;11.07;;
18653;SDS011;9456;47.824;16.228;2023-12-04T08:00:39;20.23;;;10.43;;
18653;SDS011;9456;47.824;16.228;2023-12-04T08:03:07;29.20;;;11.10;;
18653;SDS011;9456;47.824;16.228;2023-12-04T08:05:35;29.40;;;10.73;;
18653;SDS011;9456;47.824;16.228;2023-12-04T08:08:03;30.10;;;9.97;;
18653;SDS011;9456;47.824;16.228;2023-12-04T08:10:31;30.83;;;11.77;;
18653;SDS011;9456;47.824;16.228;2023-12-04T08:12:59;25.00;;;10.33;;
18653;SDS011;9456;47.824;16.228;2023-12-04T08:15:27;36.97;;;10.70;;
18653;SDS011;9456;47.824;16.228;2023-12-04T08:17:55;23.93;;;10.73;;
18653;SDS011;9456;47.824;16.228;2023-12-04T08:20:23;23.40;;;11.47;;
18653;SDS011;9456;47.824;16.228;2023-12-04T08:22:52;41.50;;;10.80;;
18653;SDS011;9456;47.824;16.228;2023-12-04T08:25:20;22.63;;;10.73;;
18653;SDS011;9456;47.824;16.228;2023-12-04T08:27:48;12.87;;;9.13;;
18653;SDS011;9456;47.824;16.228;2023-12-04T08:30:16;12.00;;;9.17;;
18653;SDS011;9456;47.824;16.228;2023-12-04T08:32:46;12.23;;;9.00;;
18653;SDS011;9456;47.824;16.228;2023-12-04T08:35:14;10.23;;;8.33;;
18653;SDS011;9456;47.824;16.228;2023-12-04T08:37:42;10.97;;;8.37;;
18653;SDS011;9456;47.824;16.228;2023-12-04T08:40:11;11.40;;;8.90;;
18653;SDS011;9456;47.824;16.228;2023-12-04T08:42:39;11.27;;;7.93;;
18653;SDS011;9456;47.824;16.228;2023-12-04T08:45:08;13.37;;;9.43;;
18653;SDS011;9456;47.824;16.228;2023-12-04T08:47:35;15.07;;;10.37;;
18653;SDS011;9456;47.824;16.228;2023-12-04T08:50:04;14.77;;;10.70;;
18653;SDS011;9456;47.824;16.228;2023-12-04T08:52:32;23.73;;;11.20;;
18653;SDS011;9456;47.824;16.228;2023-12-04T08:55:00;25.33;;;12.03;;
18653;SDS011;9456;47.824;16.228;2023-12-04T08:57:28;27.30;;;11.27;;
18653;SDS011;9456;47.824;16.228;2023-12-04T08:59:56;16.93;;;10.97;;
18653;SDS011;9456;47.824;16.228;2023-12-04T09:02:24;14.07;;;10.10;;
18653;SDS011;9456;47.824;16.228;2023-12-04T09:04:52;14.33;;;10.97;;
18653;SDS011;9456;47.824;16.228;2023-12-04T09:07:20;13.20;;;9.90;;
18653;SDS011;9456;47.824;16.228;2023-12-04T09:09:49;13.73;;;10.40;;
18653;SDS011;9456;47.824;16.228;2023-12-04T09:12:17;11.73;;;10.00;;
18653;SDS011;9456;47.824;16.228;2023-12-04T09:14:45;13.10;;;10.20;;
18653;SDS011;9456;47.824;16.228;2023-12-04T09:17:13;13.07;;;9.87;;
18653;SDS011;9456;47.824;16.228;2023-12-04T09:19:42;10.87;;;8.87;;
18653;SDS011;9456;47.824;16.228;2023-12-04T09:22:10;10.30;;;8.87;;
18653;SDS011;9456;47.824;16.228;2023-12-04T09:24:38;9.83;;;8.83;;
18653;SDS011;9456;47.824;16.228;2023-12-04T09:27:06;9.07;;;8.17;;
18653;SDS011;9456;47.824;16.228;2023-12-04T09:29:34;10.07;;;8.43;;
18653;SDS011;9456;47.824;16.228;2023-12-04T09:32:02;8.90;;;7.90;;
18653;SDS011;9456;47.824;16.228;2023-12-04T09:34:30;8.53;;;7.23;;
18653;SDS011;9456;47.824;16.228;2023-12-04T09:36:58;7.87;;;6.70;;
18653;SDS011;9456;47.824;16.228;2023-12-04T09:39:26;7.33;;;6.63;;
18653;SDS011;9456;47.824;16.228;2023-12-04T09:41:54;11.57;;;7.90;;
18653;SDS011;9456;47.824;16.228;2023-12-04T09:44:22;12.63;;;8.50;;
18653;SDS011;9456;47.824;16.228;2023-12-04T09:46:50;9.10;;;7.27;;
18653;SDS011;9456;47.824;16.228;2023-12-04T09:49:18;9.67;;;7.60;;
18653;SDS011;9456;47.824;16.228;2023-12-04T09:51:47;8.27;;;7.47;;
18653;SDS011;9456;47.824;16.228;2023-12-04T09:54:14;8.77;;;7.73;;
18653;SDS011;9456;47.824;16.228;2023-12-04T09:56:42;8.77;;;7.27;;
18653;SDS011;9456;47.824;16.228;2023-12-04T09:59:10;7.00;;;6.30;;
18653;SDS011;9456;47.824;16.228;2023-12-04T10:01:45;7.77;;;6.97;;
18653;SDS011;9456;47.824;16.228;2023-12-04T10:04:13;7.33;;;6.63;;
18653;SDS011;9456;47.824;16.228;2023-12-04T10:09:22;8.37;;;7.57;;
18653;SDS011;9456;47.824;16.228;2023-12-04T10:11:51;7.40;;;6.70;;
18653;SDS011;9456;47.824;16.228;2023-12-04T10:14:19;7.83;;;6.87;;
18653;SDS011;9456;47.824;16.228;2023-12-04T10:16:47;8.90;;;8.00;;
18653;SDS011;9456;47.824;16.228;2023-12-04T10:19:16;11.93;;;10.70;;
18653;SDS011;9456;47.824;16.228;2023-12-04T10:21:45;11.27;;;10.07;;
18653;SDS011;9456;47.824;16.228;2023-12-04T10:24:12;11.67;;;10.17;;
18653;SDS011;9456;47.824;16.228;2023-12-04T10:26:48;10.87;;;9.37;;
18653;SDS011;9456;47.824;16.228;2023-12-04T10:29:12;9.97;;;8.93;;
18653;SDS011;9456;47.824;16.228;2023-12-04T10:31:40;11.50;;;9.73;;
18653;SDS011;9456;47.824;16.228;2023-12-04T10:34:08;10.53;;;9.43;;
18653;SDS011;9456;47.824;16.228;2023-12-04T10:36:37;11.27;;;9.13;;
18653;SDS011;9456;47.824;16.228;2023-12-04T10:39:06;10.73;;;9.63;;
18653;SDS011;9456;47.824;16.228;2023-12-04T10:41:35;10.03;;;8.90;;
18653;SDS011;9456;47.824;16.228;2023-12-04T10:44:05;9.87;;;8.70;;
18653;SDS011;9456;47.824;16.228;2023-12-04T10:46:33;11.57;;;10.30;;
18653;SDS011;9456;47.824;16.228;2023-12-04T10:49:01;9.63;;;8.60;;
18653;SDS011;9456;47.824;16.228;2023-12-04T10:51:29;11.07;;;9.97;;
18653;SDS011;9456;47.824;16.228;2023-12-04T10:53:57;9.77;;;8.77;;
18653;SDS011;9456;47.824;16.228;2023-12-04T10:56:27;13.00;;;9.97;;
18653;SDS011;9456;47.824;16.228;2023-12-04T10:58:54;9.90;;;8.37;;
18653;SDS011;9456;47.824;16.228;2023-12-04T11:01:22;9.63;;;8.70;;
18653;SDS011;9456;47.824;16.228;2023-12-04T11:03:51;9.70;;;8.73;;
18653;SDS011;9456;47.824;16.228;2023-12-04T11:06:20;9.83;;;8.40;;
18653;SDS011;9456;47.824;16.228;2023-12-04T11:08:47;8.37;;;7.57;;
18653;SDS011;9456;47.824;16.228;2023-12-04T11:11:18;8.20;;;7.40;;
18653;SDS011;9456;47.824;16.228;2023-12-04T11:13:45;8.20;;;7.40;;
18653;SDS011;9456;47.824;16.228;2023-12-04T11:16:15;9.13;;;8.20;;
18653;SDS011;9456;47.824;16.228;2023-12-04T11:18:42;10.03;;;8.83;;
18653;SDS011;9456;47.824;16.228;2023-12-04T11:21:09;8.83;;;8.03;;
18653;SDS011;9456;47.824;16.228;2023-12-04T11:23:37;9.83;;;8.53;;
18653;SDS011;9456;47.824;16.228;2023-12-04T11:26:05;8.67;;;7.77;;
18653;SDS011;9456;47.824;16.228;2023-12-04T11:28:33;11.83;;;9.13;;
18653;SDS011;9456;47.824;16.228;2023-12-04T11:31:01;9.77;;;8.30;;
18653;SDS011;9456;47.824;16.228;2023-12-04T11:33:29;11.00;;;9.30;;
18653;SDS011;9456;47.824;16.228;2023-12-04T11:36:06;10.63;;;9.53;;
18653;SDS011;9456;47.824;16.228;2023-12-04T11:38:34;9.60;;;8.53;;
18653;SDS011;9456;47.824;16.228;2023-12-04T11:41:02;16.87;;;8.60;;
18653;SDS011;9456;47.824;16.228;2023-12-04T11:43:30;8.73;;;7.83;;
18653;SDS011;9456;47.824;16.228;2023-12-04T11:46:08;8.33;;;7.43;;
18653;SDS011;9456;47.824;16.228;2023-12-04T11:48:37;7.97;;;7.17;;
18653;SDS011;9456;47.824;16.228;2023-12-04T11:51:06;8.60;;;7.73;;
18653;SDS011;9456;47.824;16.228;2023-12-04T11:53:38;8.80;;;7.87;;
18653;SDS011;9456;47.824;16.228;2023-12-04T11:56:10;6.07;;;5.40;;
18653;SDS011;9456;47.824;16.228;2023-12-04T11:58:44;1.53;;;1.43;;
18653;SDS011;9456;47.824;16.228;2023-12-04T12:01:12;1.53;;;1.40;;
18653;SDS011;9456;47.824;16.228;2023-12-04T12:03:40;1.70;;;1.60;;
18653;SDS011;9456;47.824;16.228;2023-12-04T12:06:08;1.70;;;1.60;;
18653;SDS011;9456;47.824;16.228;2023-12-04T12:08:36;1.70;;;1.60;;
18653;SDS011;9456;47.824;16.228;2023-12-04T12:11:05;1.77;;;1.67;;
18653;SDS011;9456;47.824;16.228;2023-12-04T12:13:33;1.73;;;1.63;;
18653;SDS011;9456;47.824;16.228;2023-12-04T12:16:02;2.00;;;1.80;;
18653;SDS011;9456;47.824;16.228;2023-12-04T12:18:30;2.00;;;1.80;;
18653;SDS011;9456;47.824;16.228;2023-12-04T12:20:58;1.87;;;1.77;;
18653;SDS011;9456;47.824;16.228;2023-12-04T12:23:27;2.13;;;1.93;;
18653;SDS011;9456;47.824;16.228;2023-12-04T12:25:55;2.20;;;1.97;;
18653;SDS011;9456;47.824;16.228;2023-12-04T12:28:23;2.03;;;1.87;;
18653;SDS011;9456;47.824;16.228;2023-12-04T12:30:51;2.07;;;1.73;;
18653;SDS011;9456;47.824;16.228;2023-12-04T12:33:19;2.13;;;1.97;;
18653;SDS011;9456;47.824;16.228;2023-12-04T12:35:48;3.63;;;1.67;;
18653;SDS011;9456;47.824;16.228;2023-12-04T12:38:15;1.47;;;1.43;;
18653;SDS011;9456;47.824;16.228;2023-12-04T12:40:43;1.90;;;1.80;;
18653;SDS011;9456;47.824;16.228;2023-12-04T12:43:12;1.70;;;1.60;;
18653;SDS011;9456;47.824;16.228;2023-12-04T12:45:40;2.20;;;1.60;;
18653;SDS011;9456;47.824;16.228;2023-12-04T12:48:12;1.40;;;1.40;;
18653;SDS011;9456;47.824;16.228;2023-12-04T12:50:39;2.87;;;1.70;;
18653;SDS011;9456;47.824;16.228;2023-12-04T12:53:07;2.40;;;2.20;;
18653;SDS011;9456;47.824;16.228;2023-12-04T12:55:38;1.87;;;1.77;;
18653;SDS011;9456;47.824;16.228;2023-12-04T12:58:13;1.80;;;1.70;;
18653;SDS011;9456;47.824;16.228;2023-12-04T13:00:41;1.80;;;1.70;;
18653;SDS011;9456;47.824;16.228;2023-12-04T13:03:14;3.77;;;2.30;;
18653;SDS011;9456;47.824;16.228;2023-12-04T13:05:42;4.30;;;2.00;;
18653;SDS011;9456;47.824;16.228;2023-12-04T13:08:11;1.90;;;1.80;;
18653;SDS011;9456;47.824;16.228;2023-12-04T13:10:40;3.33;;;2.27;;
18653;SDS011;9456;47.824;16.228;2023-12-04T13:13:10;2.27;;;2.07;;
18653;SDS011;9456;47.824;16.228;2023-12-04T13:15:38;2.20;;;2.10;;
18653;SDS011;9456;47.824;16.228;2023-12-04T13:18:06;2.20;;;2.03;;
18653;SDS011;9456;47.824;16.228;2023-12-04T13:20:34;3.53;;;2.50;;
18653;SDS011;9456;47.824;16.228;2023-12-04T13:23:02;3.13;;;2.20;;
18653;SDS011;9456;47.824;16.228;2023-12-04T13:25:30;2.70;;;2.43;;
18653;SDS011;9456;47.824;16.228;2023-12-04T13:27:58;2.70;;;2.50;;
18653;SDS011;9456;47.824;16.228;2023-12-04T13:30:32;3.30;;;2.60;;
18653;SDS011;9456;47.824;16.228;2023-12-04T13:33:01;4.43;;;2.60;;
18653;SDS011;9456;47.824;16.228;2023-12-04T13:35:32;3.20;;;2.90;;
18653;SDS011;9456;47.824;16.228;2023-12-04T13:38:00;2.80;;;2.43;;
18653;SDS011;9456;47.824;16.228;2023-12-04T13:40:28;3.77;;;3.37;;
18653;SDS011;9456;47.824;16.228;2023-12-04T13:42:56;3.50;;;3.20;;
18653;SDS011;9456;47.824;16.228;2023-12-04T13:45:42;3.63;;;3.33;;
18653;SDS011;9456;47.824;16.228;2023-12-04T13:48:10;3.13;;;2.87;;
18653;SDS011;9456;47.824;16.228;2023-12-04T13:50:38;3.53;;;3.23;;
18653;SDS011;9456;47.824;16.228;2023-12-04T13:53:06;3.40;;;3.10;;
18653;SDS011;9456;47.824;16.228;2023-12-04T13:55:34;3.40;;;3.10;;
18653;SDS011;9456;47.824;16.228;2023-12-04T13:58:04;3.60;;;3.30;;
18653;SDS011;9456;47.824;16.228;2023-12-04T14:00:36;4.00;;;3.47;;
18653;SDS011;9456;47.824;16.228;2023-12-04T14:03:05;3.97;;;3.57;;
18653;SDS011;9456;47.824;16.228;2023-12-04T14:05:33;3.70;;;3.40;;
18653;SDS011;9456;47.824;16.228;2023-12-04T14:08:01;3.83;;;3.53;;
18653;SDS011;9456;47.824;16.228;2023-12-04T14:10:29;4.50;;;4.10;;
18653;SDS011;9456;47.824;16.228;2023-12-04T14:12:57;4.27;;;3.87;;
18653;SDS011;9456;47.824;16.228;2023-12-04T14:15:25;3.83;;;3.50;;
18653;SDS011;9456;47.824;16.228;2023-12-04T14:17:53;4.30;;;3.90;;
18653;SDS011;9456;47.824;16.228;2023-12-04T14:20:21;4.63;;;4.13;;
18653;SDS011;9456;47.824;16.228;2023-12-04T14:22:49;4.83;;;3.80;;
18653;SDS011;9456;47.824;16.228;2023-12-04T14:25:17;4.10;;;3.70;;
18653;SDS011;9456;47.824;16.228;2023-12-04T14:27:45;4.23;;;3.80;;
18653;SDS011;9456;47.824;16.228;2023-12-04T14:30:13;3.67;;;3.37;;
18653;SDS011;9456;47.824;16.228;2023-12-04T14:32:41;5.83;;;4.83;;
18653;SDS011;9456;47.824;16.228;2023-12-04T14:35:09;3.77;;;3.47;;
18653;SDS011;9456;47.824;16.228;2023-12-04T14:37:37;3.83;;;3.47;;
18653;SDS011;9456;47.824;16.228;2023-12-04T14:40:11;7.47;;;5.10;;
18653;SDS011;9456;47.824;16.228;2023-12-04T14:42:37;4.90;;;4.40;;
18653;SDS011;9456;47.824;16.228;2023-12-04T14:45:06;5.10;;;4.57;;
18653;SDS011;9456;47.824;16.228;2023-12-04T14:47:34;5.30;;;4.53;;
18653;SDS011;9456;47.824;16.228;2023-12-04T14:50:02;4.90;;;4.40;;
18653;SDS011;9456;47.824;16.228;2023-12-04T14:52:31;4.50;;;4.10;;
18653;SDS011;9456;47.824;16.228;2023-12-04T14:55:00;4.63;;;4.23;;
18653;SDS011;9456;47.824;16.228;2023-12-04T14:57:36;4.60;;;4.20;;
18653;SDS011;9456;47.824;16.228;2023-12-04T15:00:16;6.47;;;5.00;;